createdAt,value
2018-04-16T00:00:42.536Z,0
2018-04-16T00:01:50.595Z,0
2018-04-16T00:02:58.654Z,0
2018-04-16T00:04:06.718Z,0
2018-04-16T00:05:14.739Z,0
2018-04-16T00:06:22.830Z,0
2018-04-16T00:07:30.880Z,0
2018-04-16T00:08:38.959Z,0
2018-04-16T00:09:47.013Z,0
2018-04-16T00:10:55.046Z,0
2018-04-16T00:12:03.150Z,0
2018-04-16T00:13:11.207Z,0
2018-04-16T00:14:19.288Z,0
2018-04-16T00:15:27.321Z,0
2018-04-16T00:16:35.361Z,0
2018-04-16T00:17:43.449Z,0
2018-04-16T00:18:51.515Z,0
2018-04-16T00:19:59.575Z,0
2018-04-16T00:21:07.638Z,0
2018-04-16T00:22:15.693Z,0
2018-04-16T00:23:23.762Z,0
2018-04-16T00:24:31.812Z,0
2018-04-16T00:25:39.886Z,0
2018-04-16T00:26:47.950Z,0
2018-04-16T00:27:55.996Z,0
2018-04-16T00:29:04.050Z,0
2018-04-16T00:30:12.113Z,0
2018-04-16T00:31:20.182Z,0
2018-04-16T00:32:28.253Z,0
2018-04-16T00:33:36.308Z,0
2018-04-16T00:34:44.375Z,0
2018-04-16T00:35:52.437Z,0
2018-04-16T00:37:00.474Z,0
2018-04-16T00:38:08.560Z,0
2018-04-16T00:39:16.622Z,0
2018-04-16T00:40:24.666Z,0
2018-04-16T00:41:32.743Z,0
2018-04-16T00:42:40.789Z,0
2018-04-16T00:43:48.852Z,0
2018-04-16T00:44:56.918Z,0
2018-04-16T00:46:04.955Z,0
2018-04-16T00:47:13.039Z,0
2018-04-16T00:48:21.114Z,0
2018-04-16T00:49:29.165Z,0
2018-04-16T00:50:37.232Z,0
2018-04-16T00:51:45.265Z,0
2018-04-16T00:52:53.356Z,0
2018-04-16T00:54:01.424Z,0
2018-04-16T00:55:09.462Z,0
2018-04-16T00:56:17.529Z,0
2018-04-16T00:57:25.578Z,0
2018-04-16T00:58:33.683Z,0
2018-04-16T00:59:41.731Z,0
2018-04-16T01:00:49.783Z,0
2018-04-16T01:01:57.837Z,0
2018-04-16T01:03:05.910Z,0
2018-04-16T01:04:13.975Z,0
2018-04-16T01:05:22.023Z,0
2018-04-16T01:06:30.086Z,0
2018-04-16T01:07:38.151Z,0
2018-04-16T01:08:46.196Z,0
2018-04-16T01:09:54.294Z,0
2018-04-16T01:11:02.325Z,0
2018-04-16T01:12:10.401Z,0
2018-04-16T01:13:18.453Z,0
2018-04-16T01:14:26.517Z,0
2018-04-16T01:15:34.557Z,0
2018-04-16T01:16:42.640Z,0
2018-04-16T01:17:51.369Z,0
2018-04-16T01:18:58.750Z,0
2018-04-16T01:20:06.823Z,0
2018-04-16T01:21:14.845Z,0
2018-04-16T01:22:22.942Z,0
2018-04-16T01:23:30.998Z,0
2018-04-16T01:24:39.057Z,0
2018-04-16T01:25:47.128Z,0
2018-04-16T01:26:55.161Z,0
2018-04-16T01:28:03.245Z,0
2018-04-16T01:29:11.306Z,0
2018-04-16T01:30:19.372Z,0
2018-04-16T01:31:27.426Z,0
2018-04-16T01:32:35.458Z,0
2018-04-16T01:33:43.559Z,0
2018-04-16T01:34:51.619Z,0
2018-04-16T01:35:59.669Z,0
2018-04-16T01:37:07.737Z,0
2018-04-16T01:38:15.802Z,0
2018-04-16T01:39:23.860Z,0
2018-04-16T01:40:31.910Z,0
2018-04-16T01:41:39.985Z,0
2018-04-16T01:42:48.051Z,0
2018-04-16T01:43:56.109Z,0
2018-04-16T01:45:04.176Z,0
2018-04-16T01:46:12.225Z,0
2018-04-16T01:47:20.300Z,0
2018-04-16T01:48:28.339Z,0
2018-04-16T01:49:36.406Z,0
2018-04-16T01:50:44.463Z,0
2018-04-16T01:51:52.540Z,0
2018-04-16T01:53:00.592Z,0
2018-04-16T01:54:08.645Z,0
2018-04-16T01:55:16.711Z,0
2018-04-16T01:56:24.745Z,0
2018-04-16T01:57:32.847Z,0
2018-04-16T01:58:40.903Z,0
2018-04-16T01:59:48.956Z,0
2018-04-16T02:00:57.025Z,0
2018-04-16T02:02:05.053Z,0
2018-04-16T02:03:13.178Z,0
2018-04-16T02:04:21.212Z,0
2018-04-16T02:05:29.277Z,0
2018-04-16T02:06:37.331Z,0
2018-04-16T02:07:45.362Z,0
2018-04-16T02:08:53.436Z,0
2018-04-16T02:10:01.529Z,0
2018-04-16T02:11:09.573Z,0
2018-04-16T02:12:17.637Z,0
2018-04-16T02:13:25.692Z,0
2018-04-16T02:14:33.752Z,0
2018-04-16T02:15:41.813Z,0
2018-04-16T02:16:49.890Z,0
2018-04-16T02:17:57.930Z,0
2018-04-16T02:19:05.997Z,0
2018-04-16T02:20:14.068Z,0
2018-04-16T02:21:22.110Z,0
2018-04-16T02:22:30.174Z,0
2018-04-16T02:23:38.250Z,0
2018-04-16T02:24:46.300Z,0
2018-04-16T02:25:54.362Z,0
2018-04-16T02:27:02.435Z,0
2018-04-16T02:28:10.495Z,0
2018-04-16T02:29:18.560Z,0
2018-04-16T02:30:26.615Z,0
2018-04-16T02:31:34.651Z,0
2018-04-16T02:32:42.732Z,0
2018-04-16T02:33:50.805Z,0
2018-04-16T02:34:58.859Z,0
2018-04-16T02:36:06.917Z,0
2018-04-16T02:37:14.948Z,0
2018-04-16T02:38:23.042Z,0
2018-04-16T02:39:31.104Z,0
2018-04-16T02:40:39.160Z,0
2018-04-16T02:41:47.228Z,0
2018-04-16T02:42:55.256Z,0
2018-04-16T02:44:03.348Z,0
2018-04-16T02:45:11.410Z,0
2018-04-16T02:46:19.466Z,0
2018-04-16T02:47:27.524Z,0
2018-04-16T02:48:35.577Z,0
2018-04-16T02:49:43.659Z,0
2018-04-16T02:50:51.709Z,0
2018-04-16T02:51:59.773Z,0
2018-04-16T02:53:07.849Z,0
2018-04-16T02:54:15.909Z,0
2018-04-16T02:55:23.955Z,0
2018-04-16T02:56:32.015Z,0
2018-04-16T02:57:40.064Z,0
2018-04-16T02:58:48.135Z,0
2018-04-16T02:59:56.211Z,0
2018-04-16T03:01:04.263Z,0
2018-04-16T03:02:12.330Z,0
2018-04-16T03:03:20.389Z,0
2018-04-16T03:04:28.454Z,0
2018-04-16T03:05:36.514Z,0
2018-04-16T03:06:44.558Z,0
2018-04-16T03:07:52.624Z,0
2018-04-16T03:09:00.690Z,0
2018-04-16T03:10:08.767Z,0
2018-04-16T03:11:16.820Z,0
2018-04-16T03:12:24.862Z,0
2018-04-16T03:13:32.943Z,0
2018-04-16T03:14:40.995Z,0
2018-04-16T03:15:49.060Z,0
2018-04-16T03:16:57.113Z,0
2018-04-16T03:18:05.158Z,0
2018-04-16T03:19:13.247Z,0
2018-04-16T03:20:21.299Z,0
2018-04-16T03:21:29.372Z,0
2018-04-16T03:22:37.429Z,0
2018-04-16T03:23:45.471Z,0
2018-04-16T03:24:53.534Z,0
2018-04-16T03:26:01.614Z,0
2018-04-16T03:27:09.676Z,0
2018-04-16T03:28:17.742Z,0
2018-04-16T03:29:25.798Z,0
2018-04-16T03:30:33.848Z,0
2018-04-16T03:31:41.918Z,0
2018-04-16T03:32:49.965Z,0
2018-04-16T03:33:58.034Z,0
2018-04-16T03:35:06.104Z,0
2018-04-16T03:36:14.164Z,0
2018-04-16T03:37:22.221Z,0
2018-04-16T03:38:30.273Z,0
2018-04-16T03:39:38.345Z,0
2018-04-16T03:40:46.432Z,0
2018-04-16T03:41:54.461Z,0
2018-04-16T03:43:02.519Z,0
2018-04-16T03:44:10.597Z,0
2018-04-16T03:45:18.644Z,0
2018-04-16T03:46:26.710Z,0
2018-04-16T03:47:34.740Z,0
2018-04-16T03:48:42.820Z,0
2018-04-16T03:49:50.888Z,0
2018-04-16T03:50:58.972Z,0
2018-04-16T03:52:07.045Z,0
2018-04-16T03:53:15.040Z,0
2018-04-16T03:54:23.129Z,0
2018-04-16T03:55:31.204Z,0
2018-04-16T03:56:39.251Z,0
2018-04-16T03:57:47.306Z,0
2018-04-16T03:58:55.349Z,0
2018-04-16T04:00:03.445Z,0
2018-04-16T04:01:11.508Z,0
2018-04-16T04:02:19.562Z,0
2018-04-16T04:03:27.636Z,0
2018-04-16T04:04:35.689Z,0
2018-04-16T04:05:43.747Z,0
2018-04-16T04:06:51.800Z,0
2018-04-16T04:07:59.867Z,0
2018-04-16T04:09:07.977Z,0
2018-04-16T04:10:15.979Z,4
2018-04-16T04:11:24.053Z,4
2018-04-16T04:12:32.119Z,4
2018-04-16T04:13:40.175Z,4
2018-04-16T04:14:48.224Z,4
2018-04-16T04:15:56.843Z,4
2018-04-16T04:17:04.362Z,8
2018-04-16T04:18:12.410Z,4
2018-04-16T04:19:20.474Z,8
2018-04-16T04:20:28.525Z,8
2018-04-16T04:21:36.588Z,8
2018-04-16T04:22:44.635Z,12
2018-04-16T04:23:53.291Z,12
2018-04-16T04:25:00.793Z,12
2018-04-16T04:26:08.848Z,12
2018-04-16T04:27:16.903Z,12
2018-04-16T04:28:25.004Z,12
2018-04-16T04:29:33.031Z,12
2018-04-16T04:30:41.088Z,8
2018-04-16T04:31:49.149Z,12
2018-04-16T04:32:57.206Z,16
2018-04-16T04:34:05.245Z,16
2018-04-16T04:35:13.325Z,20
2018-04-16T04:36:21.397Z,20
2018-04-16T04:37:29.443Z,20
2018-04-16T04:38:37.518Z,24
2018-04-16T04:39:45.556Z,28
2018-04-16T04:40:53.634Z,28
2018-04-16T04:42:01.705Z,36
2018-04-16T04:43:09.742Z,40
2018-04-16T04:44:17.811Z,40
2018-04-16T04:45:25.868Z,44
2018-04-16T04:46:33.944Z,52
2018-04-16T04:47:42.001Z,56
2018-04-16T04:48:50.062Z,64
2018-04-16T04:49:58.464Z,76
2018-04-16T04:51:06.186Z,88
2018-04-16T04:52:14.238Z,96
2018-04-16T04:53:22.306Z,108
2018-04-16T04:54:30.701Z,120
2018-04-16T04:55:38.433Z,140
2018-04-16T04:56:46.496Z,164
2018-04-16T04:57:54.536Z,192
2018-04-16T04:59:02.601Z,212
2018-04-16T05:00:10.690Z,228
2018-04-16T05:01:18.734Z,240
2018-04-16T05:02:26.781Z,248
2018-04-16T05:03:35.335Z,276
2018-04-16T05:04:42.923Z,296
2018-04-16T05:05:50.986Z,272
2018-04-16T05:06:59.045Z,224
2018-04-16T05:08:07.094Z,200
2018-04-16T05:09:15.125Z,196
2018-04-16T05:10:23.218Z,180
2018-04-16T05:11:31.302Z,176
2018-04-16T05:12:39.346Z,192
2018-04-16T05:13:47.419Z,208
2018-04-16T05:14:55.452Z,236
2018-04-16T05:16:03.533Z,228
2018-04-16T05:17:11.595Z,204
2018-04-16T05:18:19.673Z,204
2018-04-16T05:19:27.717Z,216
2018-04-16T05:20:35.772Z,228
2018-04-16T05:21:43.834Z,232
2018-04-16T05:22:51.902Z,216
2018-04-16T05:23:59.958Z,220
2018-04-16T05:25:08.014Z,236
2018-04-16T05:26:16.074Z,232
2018-04-16T05:27:24.143Z,240
2018-04-16T05:28:32.197Z,228
2018-04-16T05:29:40.256Z,240
2018-04-16T05:30:48.325Z,220
2018-04-16T05:31:56.379Z,220
2018-04-16T05:33:04.437Z,240
2018-04-16T05:34:12.549Z,276
2018-04-16T05:35:20.561Z,292
2018-04-16T05:36:28.634Z,276
2018-04-16T05:37:36.683Z,292
2018-04-16T05:38:44.727Z,276
2018-04-16T05:39:52.817Z,312
2018-04-16T05:41:00.878Z,324
2018-04-16T05:42:08.931Z,336
2018-04-16T05:43:17.000Z,396
2018-04-16T05:44:25.043Z,368
2018-04-16T05:45:33.116Z,388
2018-04-16T05:46:41.180Z,444
2018-04-16T05:47:49.242Z,508
2018-04-16T05:48:57.308Z,528
2018-04-16T05:50:05.338Z,536
2018-04-16T05:51:13.420Z,552
2018-04-16T05:52:21.480Z,624
2018-04-16T05:53:29.552Z,688
2018-04-16T05:54:37.609Z,720
2018-04-16T05:55:45.657Z,748
2018-04-16T05:56:53.741Z,724
2018-04-16T05:58:01.800Z,692
2018-04-16T05:59:09.844Z,724
2018-04-16T06:00:17.963Z,792
2018-04-16T06:01:25.989Z,896
2018-04-16T06:02:34.039Z,996
2018-04-16T06:03:42.100Z,1040
2018-04-16T06:04:50.162Z,1100
2018-04-16T06:05:58.217Z,1124
2018-04-16T06:07:06.283Z,972
2018-04-16T06:08:14.334Z,1044
2018-04-16T06:09:22.391Z,1064
2018-04-16T06:10:30.459Z,1064
2018-04-16T06:11:38.523Z,1248
2018-04-16T06:12:46.587Z,1360
2018-04-16T06:13:54.658Z,1428
2018-04-16T06:15:02.702Z,1512
2018-04-16T06:16:10.805Z,1616
2018-04-16T06:17:18.834Z,1740
2018-04-16T06:18:26.896Z,1908
2018-04-16T06:19:34.923Z,2120
2018-04-16T06:20:43.025Z,2392
2018-04-16T06:21:51.076Z,2792
2018-04-16T06:22:59.142Z,3268
2018-04-16T06:24:07.189Z,3784
2018-04-16T06:25:15.234Z,4204
2018-04-16T06:26:23.320Z,4384
2018-04-16T06:27:31.404Z,4544
2018-04-16T06:28:39.452Z,4796
2018-04-16T06:29:47.507Z,5180
2018-04-16T06:30:55.562Z,5708
2018-04-16T06:32:03.625Z,6300
2018-04-16T06:33:11.687Z,6920
2018-04-16T06:34:19.746Z,7492
2018-04-16T06:35:27.818Z,8016
2018-04-16T06:36:35.901Z,8620
2018-04-16T06:37:43.941Z,9264
2018-04-16T06:38:51.996Z,9948
2018-04-16T06:40:00.058Z,10744
2018-04-16T06:41:08.141Z,11556
2018-04-16T06:42:16.190Z,12212
2018-04-16T06:43:24.253Z,12764
2018-04-16T06:44:32.315Z,13180
2018-04-16T06:45:40.379Z,13420
2018-04-16T06:46:48.439Z,13368
2018-04-16T06:47:56.493Z,13100
2018-04-16T06:49:04.552Z,12880
2018-04-16T06:50:12.620Z,12928
2018-04-16T06:51:20.692Z,13452
2018-04-16T06:52:28.751Z,13588
2018-04-16T06:53:36.810Z,14356
2018-04-16T06:54:44.853Z,13740
2018-04-16T06:55:52.971Z,12524
2018-04-16T06:57:00.995Z,12148
2018-04-16T06:58:09.075Z,12644
2018-04-16T06:59:17.137Z,11776
2018-04-16T07:00:25.181Z,11400
2018-04-16T07:01:33.291Z,11080
2018-04-16T07:02:41.328Z,10964
2018-04-16T07:03:49.393Z,11472
2018-04-16T07:04:57.459Z,12520
2018-04-16T07:06:05.517Z,13424
2018-04-16T07:07:13.585Z,14676
2018-04-16T07:08:21.648Z,15064
2018-04-16T07:09:29.766Z,14628
2018-04-16T07:10:37.770Z,14600
2018-04-16T07:11:45.836Z,14896
2018-04-16T07:12:53.897Z,15384
2018-04-16T07:14:01.985Z,16148
2018-04-16T07:15:10.040Z,17216
2018-04-16T07:16:18.121Z,18240
2018-04-16T07:17:26.167Z,19104
2018-04-16T07:18:34.236Z,19680
2018-04-16T07:19:42.319Z,20256
2018-04-16T07:20:50.355Z,20736
2018-04-16T07:21:58.426Z,20928
2018-04-16T07:23:06.494Z,19424
2018-04-16T07:24:14.594Z,17408
2018-04-16T07:25:22.632Z,15652
2018-04-16T07:26:30.688Z,14248
2018-04-16T07:27:38.752Z,13800
2018-04-16T07:28:46.818Z,12836
2018-04-16T07:29:54.852Z,11792
2018-04-16T07:31:02.955Z,11236
2018-04-16T07:32:11.031Z,10632
2018-04-16T07:33:19.085Z,9884
2018-04-16T07:34:27.134Z,9448
2018-04-16T07:35:35.208Z,9244
2018-04-16T07:36:43.280Z,9132
2018-04-16T07:37:51.348Z,9100
2018-04-16T07:38:59.399Z,9000
2018-04-16T07:40:07.479Z,9248
2018-04-16T07:41:15.538Z,9688
2018-04-16T07:42:23.603Z,10260
2018-04-16T07:43:31.683Z,10572
2018-04-16T07:44:39.752Z,11280
2018-04-16T07:45:47.804Z,11544
2018-04-16T07:46:55.893Z,11780
2018-04-16T07:48:03.942Z,11852
2018-04-16T07:49:12.006Z,12128
2018-04-16T07:50:20.084Z,12204
2018-04-16T07:51:28.150Z,11944
2018-04-16T07:52:36.217Z,11004
2018-04-16T07:53:44.268Z,10112
2018-04-16T07:54:52.341Z,10012
2018-04-16T07:56:00.398Z,10020
2018-04-16T07:57:08.475Z,9976
2018-04-16T07:58:16.524Z,10104
2018-04-16T07:59:24.586Z,9912
2018-04-16T08:00:32.678Z,9612
2018-04-16T08:01:40.727Z,9388
2018-04-16T08:02:48.804Z,9480
2018-04-16T08:03:56.853Z,9608
2018-04-16T08:05:04.905Z,9840
2018-04-16T08:06:13.031Z,9900
2018-04-16T08:07:21.065Z,9872
2018-04-16T08:08:29.121Z,10084
2018-04-16T08:09:37.181Z,10320
2018-04-16T08:10:45.229Z,10472
2018-04-16T08:11:53.320Z,10360
2018-04-16T08:13:01.391Z,10312
2018-04-16T08:14:09.445Z,10072
2018-04-16T08:15:17.506Z,9508
2018-04-16T08:16:25.573Z,9072
2018-04-16T08:17:33.654Z,8848
2018-04-16T08:18:41.722Z,8888
2018-04-16T08:19:49.792Z,9032
2018-04-16T08:20:57.853Z,8852
2018-04-16T08:22:05.917Z,8604
2018-04-16T08:23:13.978Z,8384
2018-04-16T08:24:22.049Z,7976
2018-04-16T08:25:30.103Z,7440
2018-04-16T08:26:38.180Z,7100
2018-04-16T08:27:46.245Z,6824
2018-04-16T08:28:54.313Z,6532
2018-04-16T08:30:02.379Z,6324
2018-04-16T08:31:10.436Z,6240
2018-04-16T08:32:18.498Z,6076
2018-04-16T08:33:26.560Z,5968
2018-04-16T08:34:34.605Z,5976
2018-04-16T08:35:42.697Z,5416
2018-04-16T08:36:50.760Z,4780
2018-04-16T08:37:58.830Z,4776
2018-04-16T08:39:06.890Z,5072
2018-04-16T08:40:14.925Z,5308
2018-04-16T08:41:23.043Z,5632
2018-04-16T08:42:31.083Z,6108
2018-04-16T08:43:39.151Z,6468
2018-04-16T08:44:47.221Z,6256
2018-04-16T08:45:55.245Z,5952
2018-04-16T08:47:03.363Z,6232
2018-04-16T08:48:11.412Z,6436
2018-04-16T08:49:19.456Z,6576
2018-04-16T08:50:27.541Z,6588
2018-04-16T08:51:35.589Z,6524
2018-04-16T08:52:43.666Z,6332
2018-04-16T08:53:51.717Z,6336
2018-04-16T08:54:59.800Z,6428
2018-04-16T08:56:07.861Z,6208
2018-04-16T08:57:15.924Z,6068
2018-04-16T08:58:23.980Z,6028
2018-04-16T08:59:32.065Z,6132
2018-04-16T09:00:40.120Z,6528
2018-04-16T09:01:48.181Z,6912
2018-04-16T09:02:56.245Z,7284
2018-04-16T09:04:04.308Z,7716
2018-04-16T09:05:12.377Z,8120
2018-04-16T09:06:20.449Z,8644
2018-04-16T09:07:28.501Z,9124
2018-04-16T09:08:36.562Z,9584
2018-04-16T09:09:44.632Z,10040
2018-04-16T09:10:52.695Z,10564
2018-04-16T09:12:00.757Z,11080
2018-04-16T09:13:08.836Z,11528
2018-04-16T09:14:16.892Z,11896
2018-04-16T09:15:24.931Z,12140
2018-04-16T09:16:33.045Z,12324
2018-04-16T09:17:41.082Z,12456
2018-04-16T09:18:49.159Z,12556
2018-04-16T09:19:57.220Z,12604
2018-04-16T09:21:05.247Z,12712
2018-04-16T09:22:13.364Z,12916
2018-04-16T09:23:21.437Z,13088
2018-04-16T09:24:29.481Z,13256
2018-04-16T09:25:37.524Z,13396
2018-04-16T09:26:45.598Z,13584
2018-04-16T09:27:53.687Z,13828
2018-04-16T09:29:01.732Z,14068
2018-04-16T09:30:09.798Z,14380
2018-04-16T09:31:17.882Z,14908
2018-04-16T09:32:25.929Z,15296
2018-04-16T09:33:33.998Z,15644
2018-04-16T09:34:42.065Z,15876
2018-04-16T09:35:50.130Z,15948
2018-04-16T09:36:58.195Z,15944
2018-04-16T09:38:06.302Z,15936
2018-04-16T09:39:14.351Z,15944
2018-04-16T09:40:22.392Z,15892
2018-04-16T09:41:30.451Z,15600
2018-04-16T09:42:38.529Z,15536
2018-04-16T09:43:46.594Z,15632
2018-04-16T09:44:54.651Z,15448
2018-04-16T09:46:02.722Z,15288
2018-04-16T09:47:10.788Z,15412
2018-04-16T09:48:18.873Z,15920
2018-04-16T09:49:26.917Z,16476
2018-04-16T09:50:34.992Z,16700
2018-04-16T09:51:43.033Z,16756
2018-04-16T09:52:51.110Z,16884
2018-04-16T09:53:59.181Z,17136
2018-04-16T09:55:07.241Z,17728
2018-04-16T09:56:15.285Z,18176
2018-04-16T09:57:23.391Z,18592
2018-04-16T09:58:31.485Z,18560
2018-04-16T09:59:39.517Z,17984
2018-04-16T10:00:47.588Z,16740
2018-04-16T10:01:55.647Z,16124
2018-04-16T10:03:03.718Z,15492
2018-04-16T10:04:11.786Z,15008
2018-04-16T10:05:19.849Z,15252
2018-04-16T10:06:27.908Z,16204
2018-04-16T10:07:35.992Z,16720
2018-04-16T10:08:44.045Z,16968
2018-04-16T10:09:52.121Z,17536
2018-04-16T10:11:00.174Z,18176
2018-04-16T10:12:08.258Z,18752
2018-04-16T10:13:16.324Z,18880
2018-04-16T10:14:24.389Z,18976
2018-04-16T10:15:32.449Z,18912
2018-04-16T10:16:40.510Z,18848
2018-04-16T10:17:48.581Z,18944
2018-04-16T10:18:56.671Z,19328
2018-04-16T10:20:04.716Z,19936
2018-04-16T10:21:12.800Z,20672
2018-04-16T10:22:20.874Z,21216
2018-04-16T10:23:28.936Z,21536
2018-04-16T10:24:37.010Z,21856
2018-04-16T10:25:45.027Z,22112
2018-04-16T10:26:53.143Z,22304
2018-04-16T10:28:01.191Z,22528
2018-04-16T10:29:09.264Z,22592
2018-04-16T10:30:17.343Z,22432
2018-04-16T10:31:25.377Z,22208
2018-04-16T10:32:33.486Z,21664
2018-04-16T10:33:41.545Z,20928
2018-04-16T10:34:49.618Z,20064
2018-04-16T10:35:57.673Z,19200
2018-04-16T10:37:05.738Z,18080
2018-04-16T10:38:13.810Z,16724
2018-04-16T10:39:21.879Z,16476
2018-04-16T10:40:29.956Z,15912
2018-04-16T10:41:38.022Z,15404
2018-04-16T10:42:46.093Z,15800
2018-04-16T10:43:54.161Z,16180
2018-04-16T10:45:02.226Z,16040
2018-04-16T10:46:10.291Z,16396
2018-04-16T10:47:18.371Z,18112
2018-04-16T10:48:26.429Z,19456
2018-04-16T10:49:34.489Z,19968
2018-04-16T10:50:42.568Z,20384
2018-04-16T10:51:50.647Z,20288
2018-04-16T10:52:58.717Z,20000
2018-04-16T10:54:06.779Z,19200
2018-04-16T10:55:14.812Z,18112
2018-04-16T10:56:22.913Z,17856
2018-04-16T10:57:30.983Z,17128
2018-04-16T10:58:39.054Z,16828
2018-04-16T10:59:47.116Z,17376
2018-04-16T11:00:55.220Z,17952
2018-04-16T11:02:03.263Z,18112
2018-04-16T11:03:11.330Z,17504
2018-04-16T11:04:19.400Z,15984
2018-04-16T11:05:27.481Z,15280
2018-04-16T11:06:35.518Z,15352
2018-04-16T11:07:43.603Z,15828
2018-04-16T11:08:51.662Z,16580
2018-04-16T11:09:59.734Z,16992
2018-04-16T11:11:07.809Z,17408
2018-04-16T11:12:15.870Z,17952
2018-04-16T11:13:23.946Z,18304
2018-04-16T11:14:32.016Z,18784
2018-04-16T11:15:40.085Z,19520
2018-04-16T11:16:48.169Z,20448
2018-04-16T11:17:56.221Z,21472
2018-04-16T11:19:04.288Z,21952
2018-04-16T11:20:12.362Z,21792
2018-04-16T11:21:20.437Z,20832
2018-04-16T11:22:28.492Z,18880
2018-04-16T11:23:36.563Z,16640
2018-04-16T11:24:44.608Z,15388
2018-04-16T11:25:52.704Z,14344
2018-04-16T11:27:00.767Z,13908
2018-04-16T11:28:08.839Z,13644
2018-04-16T11:29:16.909Z,14248
2018-04-16T11:30:24.939Z,14364
2018-04-16T11:31:33.048Z,14120
2018-04-16T11:32:41.109Z,14288
2018-04-16T11:33:49.190Z,14620
2018-04-16T11:34:57.246Z,15024
2018-04-16T11:36:05.287Z,15152
2018-04-16T11:37:13.386Z,14740
2018-04-16T11:38:21.446Z,13632
2018-04-16T11:39:29.517Z,12664
2018-04-16T11:40:37.597Z,11916
2018-04-16T11:41:45.655Z,11140
2018-04-16T11:42:53.732Z,10180
2018-04-16T11:44:01.786Z,8688
2018-04-16T11:45:09.857Z,7904
2018-04-16T11:46:17.927Z,7768
2018-04-16T11:47:25.997Z,8124
2018-04-16T11:48:34.075Z,8144
2018-04-16T11:49:42.134Z,8436
2018-04-16T11:50:50.204Z,8180
2018-04-16T11:51:58.265Z,7564
2018-04-16T11:53:06.331Z,6996
2018-04-16T11:54:14.408Z,6620
2018-04-16T11:55:22.468Z,6488
2018-04-16T11:56:30.531Z,6408
2018-04-16T11:57:38.592Z,6432
2018-04-16T11:58:46.676Z,6444
2018-04-16T11:59:54.714Z,6452
2018-04-16T12:01:02.810Z,6436
2018-04-16T12:02:10.895Z,6316
2018-04-16T12:03:18.938Z,6160
2018-04-16T12:04:27.095Z,5904
2018-04-16T12:05:35.041Z,5716
2018-04-16T12:06:43.144Z,5648
2018-04-16T12:07:51.196Z,5672
2018-04-16T12:08:59.270Z,5704
2018-04-16T12:10:07.320Z,5700
2018-04-16T12:11:15.376Z,5672
2018-04-16T12:12:23.459Z,5624
2018-04-16T12:13:31.534Z,5560
2018-04-16T12:14:39.601Z,5536
2018-04-16T12:15:47.676Z,5508
2018-04-16T12:16:55.731Z,5472
2018-04-16T12:18:03.801Z,5476
2018-04-16T12:19:11.863Z,5512
2018-04-16T12:20:19.931Z,5588
2018-04-16T12:21:27.983Z,5696
2018-04-16T12:22:36.069Z,5824
2018-04-16T12:23:44.132Z,5996
2018-04-16T12:24:52.197Z,6188
2018-04-16T12:26:00.237Z,6444
2018-04-16T12:27:08.315Z,6712
2018-04-16T12:28:16.385Z,6984
2018-04-16T12:29:24.475Z,7216
2018-04-16T12:30:32.551Z,7356
2018-04-16T12:31:40.592Z,7464
2018-04-16T12:32:48.665Z,7580
2018-04-16T12:33:56.709Z,7668
2018-04-16T12:35:04.758Z,7712
2018-04-16T12:36:12.849Z,7712
2018-04-16T12:37:20.910Z,7664
2018-04-16T12:38:28.972Z,7572
2018-04-16T12:39:37.042Z,7460
2018-04-16T12:40:45.077Z,7360
2018-04-16T12:41:53.187Z,7360
2018-04-16T12:43:01.252Z,7484
2018-04-16T12:44:09.316Z,7724
2018-04-16T12:45:17.379Z,8012
2018-04-16T12:46:25.407Z,8232
2018-04-16T12:47:33.539Z,8360
2018-04-16T12:48:41.565Z,8396
2018-04-16T12:49:49.637Z,8324
2018-04-16T12:50:57.703Z,8184
2018-04-16T12:52:05.788Z,8040
2018-04-16T12:53:13.824Z,7924
2018-04-16T12:54:21.904Z,7876
2018-04-16T12:55:29.957Z,7884
2018-04-16T12:56:38.019Z,7968
2018-04-16T12:57:46.090Z,8080
2018-04-16T12:58:54.165Z,8212
2018-04-16T13:00:02.220Z,8300
2018-04-16T13:01:10.293Z,8308
2018-04-16T13:02:18.353Z,8256
2018-04-16T13:03:26.421Z,8116
2018-04-16T13:04:34.466Z,7976
2018-04-16T13:05:42.550Z,7852
2018-04-16T13:06:50.613Z,7740
2018-04-16T13:07:58.675Z,7660
2018-04-16T13:09:06.744Z,7636
2018-04-16T13:10:14.776Z,7664
2018-04-16T13:11:22.869Z,7700
2018-04-16T13:12:30.921Z,7700
2018-04-16T13:13:39.006Z,7712
2018-04-16T13:14:47.062Z,7736
2018-04-16T13:15:55.106Z,7772
2018-04-16T13:17:03.191Z,7852
2018-04-16T13:18:11.261Z,8044
2018-04-16T13:19:19.318Z,8320
2018-04-16T13:20:27.392Z,8676
2018-04-16T13:21:35.441Z,9020
2018-04-16T13:22:44.173Z,9396
2018-04-16T13:23:51.593Z,9800
2018-04-16T13:24:59.660Z,10352
2018-04-16T13:26:07.720Z,10924
2018-04-16T13:27:15.788Z,11288
2018-04-16T13:28:23.856Z,11388
2018-04-16T13:29:31.910Z,11124
2018-04-16T13:30:39.981Z,10588
2018-04-16T13:31:48.031Z,10004
2018-04-16T13:32:56.114Z,9728
2018-04-16T13:34:04.171Z,9944
2018-04-16T13:35:12.247Z,10504
2018-04-16T13:36:20.313Z,11216
2018-04-16T13:37:28.374Z,11840
2018-04-16T13:38:36.441Z,12168
2018-04-16T13:39:44.492Z,12236
2018-04-16T13:40:52.580Z,12104
2018-04-16T13:42:00.648Z,12044
2018-04-16T13:43:08.709Z,11888
2018-04-16T13:44:16.774Z,11756
2018-04-16T13:45:24.812Z,11752
2018-04-16T13:46:32.904Z,11932
2018-04-16T13:47:40.956Z,12096
2018-04-16T13:48:49.030Z,11956
2018-04-16T13:49:57.089Z,11512
2018-04-16T13:51:05.143Z,10964
2018-04-16T13:52:13.236Z,10472
2018-04-16T13:53:21.303Z,9944
2018-04-16T13:54:29.359Z,9188
2018-04-16T13:55:37.444Z,8208
2018-04-16T13:56:45.476Z,7140
2018-04-16T13:57:53.579Z,6404
2018-04-16T13:59:01.617Z,6008
2018-04-16T14:00:09.689Z,5828
2018-04-16T14:01:17.762Z,5764
2018-04-16T14:02:25.823Z,5764
2018-04-16T14:03:33.892Z,5804
2018-04-16T14:04:41.966Z,5820
2018-04-16T14:05:50.025Z,5816
2018-04-16T14:06:58.099Z,5748
2018-04-16T14:08:06.160Z,5608
2018-04-16T14:09:14.221Z,5396
2018-04-16T14:10:22.285Z,5172
2018-04-16T14:11:30.349Z,4932
2018-04-16T14:12:38.414Z,4664
2018-04-16T14:13:46.487Z,4384
2018-04-16T14:14:54.539Z,4096
2018-04-16T14:16:02.614Z,3832
2018-04-16T14:17:10.683Z,3600
2018-04-16T14:18:18.739Z,3400
2018-04-16T14:19:26.820Z,3248
2018-04-16T14:20:34.838Z,3176
2018-04-16T14:21:42.946Z,3148
2018-04-16T14:22:51.001Z,3164
2018-04-16T14:23:59.073Z,3180
2018-04-16T14:25:07.127Z,3188
2018-04-16T14:26:15.176Z,3144
2018-04-16T14:27:23.282Z,3020
2018-04-16T14:28:31.339Z,2836
2018-04-16T14:29:39.405Z,2648
2018-04-16T14:30:47.463Z,2476
2018-04-16T14:31:55.516Z,2320
2018-04-16T14:33:03.583Z,2200
2018-04-16T14:34:11.661Z,2116
2018-04-16T14:35:19.719Z,2052
2018-04-16T14:36:27.780Z,2000
2018-04-16T14:37:35.844Z,1968
2018-04-16T14:38:43.927Z,1944
2018-04-16T14:39:51.984Z,1912
2018-04-16T14:41:00.044Z,1868
2018-04-16T14:42:08.114Z,1836
2018-04-16T14:43:16.186Z,1820
2018-04-16T14:44:24.236Z,1812
2018-04-16T14:45:32.304Z,1776
2018-04-16T14:46:40.371Z,1708
2018-04-16T14:47:48.426Z,1632
2018-04-16T14:48:56.489Z,1556
2018-04-16T14:50:04.544Z,1500
2018-04-16T14:51:12.624Z,1460
2018-04-16T14:52:20.691Z,1444
2018-04-16T14:53:28.754Z,1432
2018-04-16T14:54:36.832Z,1420
2018-04-16T14:55:44.860Z,1400
2018-04-16T14:56:52.939Z,1404
2018-04-16T14:58:01.012Z,1412
2018-04-16T14:59:09.055Z,1428
2018-04-16T15:00:17.124Z,1460
2018-04-16T15:01:25.174Z,1492
2018-04-16T15:02:33.267Z,1536
2018-04-16T15:03:41.330Z,1588
2018-04-16T15:04:49.387Z,1644
2018-04-16T15:05:57.452Z,1692
2018-04-16T15:07:05.517Z,1768
2018-04-16T15:08:13.592Z,1852
2018-04-16T15:09:21.680Z,1920
2018-04-16T15:10:29.706Z,2004
2018-04-16T15:11:37.770Z,2092
2018-04-16T15:12:45.858Z,2208
2018-04-16T15:13:53.908Z,2292
2018-04-16T15:15:01.970Z,2340
2018-04-16T15:16:10.024Z,2444
2018-04-16T15:17:18.089Z,2596
2018-04-16T15:18:26.171Z,2700
2018-04-16T15:19:34.247Z,2772
2018-04-16T15:20:42.282Z,2840
2018-04-16T15:21:50.347Z,2876
2018-04-16T15:22:58.406Z,2980
2018-04-16T15:24:06.465Z,3084
2018-04-16T15:25:14.516Z,3208
2018-04-16T15:26:22.586Z,3356
2018-04-16T15:27:30.671Z,3520